createdAt,value
2022-11-23T00:01:16.588Z,2.30
2022-11-23T00:03:45.235Z,2.03
2022-11-23T00:06:13.207Z,2.33
2022-11-23T00:08:41.363Z,2.57
2022-11-23T00:11:10.989Z,2.37
2022-11-23T00:13:40.679Z,2.50
2022-11-23T00:16:09.213Z,2.13
2022-11-23T00:18:37.448Z,2.63
2022-11-23T00:21:08.952Z,2.80
2022-11-23T00:23:37.339Z,2.57
2022-11-23T00:26:06.213Z,2.47
2022-11-23T00:28:38.664Z,2.30
2022-11-23T00:31:06.853Z,2.10
2022-11-23T00:33:34.992Z,2.23
2022-11-23T00:36:03.974Z,2.30
2022-11-23T00:38:32.600Z,2.17
2022-11-23T00:41:01.749Z,2.43
2022-11-23T00:43:30.817Z,2.20
2022-11-23T00:46:08.162Z,2.13
2022-11-23T00:48:36.122Z,1.90
2022-11-23T00:51:05.397Z,2.00
2022-11-23T00:53:33.321Z,2.10
2022-11-23T00:56:01.673Z,2.20
2022-11-23T00:58:29.611Z,2.27
2022-11-23T01:01:07.340Z,2.00
2022-11-23T01:03:36.015Z,2.00
2022-11-23T01:06:09.152Z,1.93
2022-11-23T01:08:37.452Z,2.00
2022-11-23T01:11:07.452Z,2.30
2022-11-23T01:13:35.957Z,2.40
2022-11-23T01:16:03.970Z,1.83
2022-11-23T01:18:33.184Z,1.90
2022-11-23T01:21:02.717Z,2.33
2022-11-23T01:23:30.980Z,1.73
2022-11-23T01:25:58.984Z,2.17
2022-11-23T01:28:26.860Z,1.70
2022-11-23T01:30:54.762Z,1.90
2022-11-23T01:33:22.682Z,2.00
2022-11-23T01:35:51.914Z,2.20
2022-11-23T01:38:19.839Z,1.80
2022-11-23T01:40:47.770Z,1.93
2022-11-23T01:43:17.425Z,2.00
2022-11-23T01:45:46.384Z,1.83
2022-11-23T01:48:18.876Z,2.07
2022-11-23T01:50:50.918Z,2.37
2022-11-23T01:53:21.636Z,2.33
2022-11-23T01:55:50.567Z,2.93
2022-11-23T01:58:22.323Z,2.13
2022-11-23T02:00:50.782Z,2.37
2022-11-23T02:03:19.733Z,2.57
2022-11-23T02:05:53.173Z,3.20
2022-11-23T02:08:22.948Z,3.43
2022-11-23T02:10:50.896Z,3.00
2022-11-23T02:13:19.539Z,2.70
2022-11-23T02:15:47.488Z,2.33
2022-11-23T02:18:19.159Z,2.20
2022-11-23T02:20:47.768Z,2.30
2022-11-23T02:23:31.612Z,2.30
2022-11-23T02:26:06.027Z,2.10
2022-11-23T02:28:37.979Z,2.43
2022-11-23T02:31:05.883Z,2.17
2022-11-23T02:33:33.795Z,2.50
2022-11-23T02:36:02.864Z,2.70
2022-11-23T02:38:34.254Z,1.87
2022-11-23T02:41:03.600Z,2.70
2022-11-23T02:43:31.650Z,1.87
2022-11-23T02:46:02.137Z,1.87
2022-11-23T02:48:30.029Z,3.00
2022-11-23T02:50:57.933Z,2.00
2022-11-23T02:53:25.856Z,2.17
2022-11-23T02:55:53.769Z,1.67
2022-11-23T02:58:23.016Z,1.50
2022-11-23T03:00:50.928Z,1.27
2022-11-23T03:03:18.920Z,1.83
2022-11-23T03:05:46.879Z,1.30
2022-11-23T03:08:14.848Z,1.50
2022-11-23T03:10:42.744Z,1.60
2022-11-23T03:13:10.692Z,1.30
2022-11-23T03:15:39.984Z,1.50
2022-11-23T03:18:07.921Z,1.80
2022-11-23T03:20:35.816Z,2.90
2022-11-23T03:23:03.708Z,3.40
2022-11-23T03:25:31.588Z,2.83
2022-11-23T03:27:59.513Z,1.77
2022-11-23T03:30:27.484Z,1.50
2022-11-23T03:32:56.731Z,1.40
2022-11-23T03:35:24.632Z,1.20
2022-11-23T03:37:52.531Z,1.57
2022-11-23T03:40:20.429Z,1.27
2022-11-23T03:42:48.341Z,1.50
2022-11-23T03:45:16.356Z,1.20
2022-11-23T03:47:45.393Z,1.30
2022-11-23T03:50:14.847Z,1.20
2022-11-23T03:52:42.724Z,1.30
2022-11-23T03:55:10.799Z,2.10
2022-11-23T03:57:38.706Z,1.67
2022-11-23T04:00:08.466Z,1.40
2022-11-23T04:02:36.518Z,1.20
2022-11-23T04:05:04.562Z,1.43
2022-11-23T04:07:33.848Z,1.00
2022-11-23T04:10:01.833Z,1.70
2022-11-23T04:12:29.758Z,1.80
2022-11-23T04:14:57.649Z,1.40
2022-11-23T04:17:25.564Z,1.30
2022-11-23T04:19:53.496Z,1.00
2022-11-23T04:22:21.418Z,1.30
2022-11-23T04:24:50.668Z,1.10
2022-11-23T04:27:18.616Z,1.77
2022-11-23T04:29:46.511Z,1.70
2022-11-23T04:32:14.434Z,1.47
2022-11-23T04:34:42.360Z,2.07
2022-11-23T04:37:13.323Z,1.60
2022-11-23T04:39:41.677Z,1.70
2022-11-23T04:42:12.453Z,5.23
2022-11-23T04:44:40.359Z,4.63
2022-11-23T04:47:08.526Z,5.67
2022-11-23T04:49:36.428Z,5.80
2022-11-23T04:52:04.527Z,2.60
2022-11-23T04:54:32.440Z,2.07
2022-11-23T04:57:00.376Z,1.60
2022-11-23T04:59:30.103Z,1.40
2022-11-23T05:01:58.315Z,1.20
2022-11-23T05:04:26.178Z,1.50
2022-11-23T05:06:54.265Z,1.30
2022-11-23T05:09:22.167Z,1.37
2022-11-23T05:11:50.052Z,2.00
2022-11-23T05:14:17.923Z,1.90
2022-11-23T05:16:47.421Z,2.43
2022-11-23T05:19:15.629Z,2.20
2022-11-23T05:21:43.519Z,2.00
2022-11-23T05:24:11.519Z,2.33
2022-11-23T05:26:39.504Z,2.20
2022-11-23T05:29:07.366Z,2.40
2022-11-23T05:31:35.328Z,1.57
2022-11-23T05:34:04.610Z,1.70
2022-11-23T05:36:32.778Z,1.27
2022-11-23T05:39:00.683Z,1.50
2022-11-23T05:41:28.629Z,1.27
2022-11-23T05:43:56.564Z,1.83
2022-11-23T05:46:24.525Z,1.30
2022-11-23T05:48:52.479Z,1.10
2022-11-23T05:51:21.851Z,1.00
2022-11-23T05:53:49.876Z,1.00
2022-11-23T05:56:17.852Z,1.43
2022-11-23T05:58:46.002Z,1.00
2022-11-23T06:01:13.916Z,1.20
2022-11-23T06:03:41.985Z,1.30
2022-11-23T06:06:11.314Z,1.30
2022-11-23T06:08:40.698Z,1.00
2022-11-23T06:11:08.912Z,2.63
2022-11-23T06:13:36.848Z,1.10
2022-11-23T06:16:05.033Z,1.50
2022-11-23T06:18:33.096Z,1.10
2022-11-23T06:21:01.678Z,1.43
2022-11-23T06:23:29.615Z,1.30
2022-11-23T06:26:00.768Z,1.20
2022-11-23T06:28:29.068Z,1.40
2022-11-23T06:30:57.060Z,1.20
2022-11-23T06:33:24.956Z,1.30
2022-11-23T06:35:57.083Z,1.03
2022-11-23T06:38:25.339Z,1.20
2022-11-23T06:40:53.227Z,1.30
2022-11-23T06:43:22.479Z,1.10
2022-11-23T06:45:50.399Z,1.27
2022-11-23T06:48:18.289Z,1.30
2022-11-23T06:50:46.201Z,1.20
2022-11-23T06:53:14.131Z,1.20
2022-11-23T06:55:42.877Z,1.17
2022-11-23T06:58:11.255Z,1.10
2022-11-23T07:00:40.553Z,1.13
2022-11-23T07:03:08.842Z,1.20
2022-11-23T07:05:39.641Z,0.90
2022-11-23T07:08:07.678Z,0.80
2022-11-23T07:10:36.276Z,0.90
2022-11-23T07:13:08.225Z,1.17
2022-11-23T07:15:36.938Z,0.90
2022-11-23T07:18:07.038Z,1.67
2022-11-23T07:20:35.869Z,2.10
2022-11-23T07:23:04.866Z,2.33
2022-11-23T07:25:34.479Z,1.47
2022-11-23T07:28:03.987Z,1.73
2022-11-23T07:30:33.099Z,2.30
2022-11-23T07:33:02.356Z,1.53
2022-11-23T07:35:32.778Z,1.20
2022-11-23T07:38:00.942Z,1.27
2022-11-23T07:40:29.051Z,1.10
2022-11-23T07:43:01.541Z,1.13
2022-11-23T07:45:29.776Z,2.30
2022-11-23T07:48:01.489Z,1.60
2022-11-23T07:50:31.341Z,1.40
2022-11-23T07:52:59.944Z,1.90
2022-11-23T07:55:28.484Z,1.77
2022-11-23T07:57:56.460Z,1.97
2022-11-23T08:00:25.330Z,3.50
2022-11-23T08:03:25.523Z,4.10
2022-11-23T08:05:42.480Z,2.77
2022-11-23T08:08:10.402Z,2.60
2022-11-23T08:10:43.609Z,1.53
2022-11-23T08:13:14.386Z,1.33
2022-11-23T08:15:42.342Z,1.60
2022-11-23T08:18:11.074Z,1.77
2022-11-23T08:20:38.952Z,1.50
2022-11-23T08:23:08.159Z,1.20
2022-11-23T08:25:36.129Z,1.43
2022-11-23T08:28:05.801Z,1.53
2022-11-23T08:30:34.857Z,1.40
2022-11-23T08:33:04.642Z,2.10
2022-11-23T08:35:34.559Z,1.47
2022-11-23T08:38:02.442Z,1.80
2022-11-23T08:40:31.843Z,2.40
2022-11-23T08:42:59.792Z,2.13
2022-11-23T08:45:28.232Z,1.73
2022-11-23T08:48:00.852Z,1.57
2022-11-23T08:50:29.599Z,1.10
2022-11-23T08:52:58.160Z,1.10
2022-11-23T08:55:26.626Z,1.67
2022-11-23T08:57:58.144Z,1.13
2022-11-23T09:00:26.133Z,1.10
2022-11-23T09:02:54.054Z,1.17
2022-11-23T09:05:22.156Z,0.93
2022-11-23T09:07:50.130Z,1.17
2022-11-23T09:10:19.332Z,1.07
2022-11-23T09:12:47.676Z,1.23
2022-11-23T09:15:17.200Z,1.10
2022-11-23T09:17:45.475Z,1.17
2022-11-23T09:20:13.787Z,1.03
2022-11-23T09:22:41.762Z,1.43
2022-11-23T09:25:10.267Z,1.00
2022-11-23T09:27:38.356Z,1.40
2022-11-23T09:30:07.362Z,1.10
2022-11-23T09:32:36.698Z,1.37
2022-11-23T09:35:04.935Z,1.50
2022-11-23T09:37:32.844Z,1.50
2022-11-23T09:40:00.738Z,1.10
2022-11-23T09:42:51.120Z,3.03
2022-11-23T09:45:27.662Z,4.13
2022-11-23T09:48:11.788Z,1.93
2022-11-23T09:50:47.822Z,1.50
2022-11-23T09:53:21.631Z,0.80
2022-11-23T09:55:51.433Z,1.10
2022-11-23T09:58:21.295Z,2.10
2022-11-23T10:00:52.457Z,1.00
2022-11-23T10:03:21.721Z,1.23
2022-11-23T10:06:02.700Z,1.30
2022-11-23T10:08:39.260Z,1.40
2022-11-23T10:11:34.625Z,1.00
2022-11-23T10:14:14.966Z,2.50
2022-11-23T10:16:52.599Z,2.83
2022-11-23T10:19:32.464Z,1.27
2022-11-23T10:22:10.458Z,0.87
2022-11-23T10:24:43.475Z,1.40
2022-11-23T10:27:17.399Z,1.00
2022-11-23T10:29:46.869Z,1.50
2022-11-23T10:32:27.627Z,1.00
2022-11-23T10:35:05.239Z,1.10
2022-11-23T10:37:34.253Z,1.10
2022-11-23T10:40:02.317Z,0.60
2022-11-23T10:42:35.278Z,0.83
2022-11-23T10:45:04.540Z,1.00
2022-11-23T10:47:41.213Z,0.87
2022-11-23T10:50:30.116Z,0.90
2022-11-23T10:53:00.290Z,1.20
2022-11-23T10:55:31.260Z,1.00
2022-11-23T10:57:59.791Z,0.97
2022-11-23T11:00:31.088Z,1.03
2022-11-23T11:03:00.048Z,1.07
2022-11-23T11:06:08.201Z,2.77
2022-11-23T11:08:21.973Z,0.80
2022-11-23T11:10:51.017Z,0.80
2022-11-23T11:13:23.963Z,1.10
2022-11-23T11:15:59.633Z,1.47
2022-11-23T11:18:30.059Z,1.20
2022-11-23T11:21:01.842Z,1.00
2022-11-23T11:23:31.776Z,0.90
2022-11-23T11:26:15.607Z,1.37
2022-11-23T11:28:45.135Z,0.90
2022-11-23T11:31:34.964Z,0.97
2022-11-23T11:34:12.138Z,1.20
2022-11-23T11:36:47.263Z,1.30
2022-11-23T11:39:21.622Z,1.20
2022-11-23T11:41:51.580Z,0.90
2022-11-23T11:44:22.882Z,1.90
2022-11-23T11:46:58.583Z,1.70
2022-11-23T11:49:31.016Z,1.27
2022-11-23T11:52:08.106Z,1.37
2022-11-23T11:54:42.311Z,0.83
2022-11-23T11:57:18.928Z,2.07
2022-11-23T11:59:50.179Z,1.00
2022-11-23T12:02:24.690Z,1.00
2022-11-23T12:05:01.318Z,0.90
2022-11-23T12:07:34.292Z,1.77
2022-11-23T12:10:07.811Z,1.30
2022-11-23T12:12:37.824Z,1.03
2022-11-23T12:15:26.584Z,1.10
2022-11-23T12:18:37.808Z,1.13
2022-11-23T12:21:06.986Z,1.10
2022-11-23T12:23:47.588Z,1.10
2022-11-23T12:26:25.396Z,1.00
2022-11-23T12:29:16.405Z,0.80
2022-11-23T12:31:49.005Z,0.93
2022-11-23T12:34:37.828Z,1.67
2022-11-23T12:37:21.688Z,1.10
2022-11-23T12:40:07.231Z,1.30
2022-11-23T12:42:42.363Z,1.20
2022-11-23T12:45:26.734Z,0.80
2022-11-23T12:48:05.031Z,2.30
2022-11-23T12:50:40.432Z,1.37
2022-11-23T12:53:27.766Z,1.10
2022-11-23T12:56:07.418Z,0.80
2022-11-23T12:58:37.525Z,0.90
2022-11-23T13:01:13.814Z,0.80
2022-11-23T13:04:10.389Z,0.70
2022-11-23T13:07:28.959Z,1.10
2022-11-23T13:10:24.079Z,1.10
2022-11-23T13:13:17.023Z,1.00
2022-11-23T13:15:57.924Z,0.80
2022-11-23T13:18:48.782Z,1.10
2022-11-23T13:21:24.071Z,0.80
2022-11-23T13:23:52.094Z,1.93
2022-11-23T13:26:21.734Z,1.23
2022-11-23T13:28:52.888Z,1.10
2022-11-23T13:31:26.857Z,1.03
2022-11-23T13:33:56.461Z,1.17
2022-11-23T13:40:03.805Z,1.33
2022-11-23T13:42:34.656Z,1.00
2022-11-23T13:45:27.355Z,0.90
2022-11-23T13:48:48.890Z,0.97
2022-11-23T13:51:07.487Z,1.10
2022-11-23T13:53:37.815Z,0.93
2022-11-23T13:56:24.439Z,1.07
2022-11-23T13:58:54.655Z,1.10
2022-11-23T14:02:02.593Z,0.87
2022-11-23T14:04:33.155Z,0.80
2022-11-23T14:07:06.682Z,0.60
2022-11-23T14:09:37.376Z,0.70
2022-11-23T14:12:13.342Z,1.33
2022-11-23T14:14:59.449Z,1.00
2022-11-23T14:17:59.875Z,0.70
2022-11-23T14:20:40.093Z,1.10
2022-11-23T14:23:47.042Z,1.17
2022-11-23T14:26:33.752Z,1.33
2022-11-23T14:29:28.613Z,1.60
2022-11-23T14:32:22.655Z,1.40
2022-11-23T14:35:02.155Z,1.30
2022-11-23T14:37:44.556Z,1.50
2022-11-23T14:40:21.461Z,1.57
2022-11-23T14:42:55.823Z,1.50
2022-11-23T14:45:25.859Z,0.90
2022-11-23T14:47:53.882Z,1.50
2022-11-23T14:50:24.043Z,1.30
2022-11-23T14:52:54.909Z,2.53
2022-11-23T14:55:25.533Z,1.50
2022-11-23T14:57:58.487Z,1.27
2022-11-23T15:00:31.493Z,1.77
2022-11-23T15:03:20.784Z,1.70
2022-11-23T15:05:54.707Z,2.23
2022-11-23T15:08:29.690Z,1.90
2022-11-23T15:11:02.844Z,1.83
2022-11-23T15:13:33.147Z,1.80
2022-11-23T15:16:05.973Z,2.40
2022-11-23T15:18:35.596Z,3.27
2022-11-23T15:21:05.407Z,4.10
2022-11-23T15:23:41.729Z,4.50
2022-11-23T15:26:34.547Z,4.10
2022-11-23T15:29:02.731Z,6.23
2022-11-23T15:31:33.840Z,14.40
2022-11-23T15:34:05.536Z,7.43
2022-11-23T15:36:38.130Z,2.10
2022-11-23T15:39:09.300Z,3.30
2022-11-23T15:41:38.287Z,4.90
2022-11-23T15:44:18.768Z,3.10
2022-11-23T15:46:51.200Z,2.53
2022-11-23T15:49:20.518Z,3.07
2022-11-23T15:51:49.278Z,2.10
2022-11-23T15:54:21.817Z,4.23
2022-11-23T15:56:52.443Z,9.40
2022-11-23T15:59:32.814Z,7.77
2022-11-23T16:02:03.293Z,6.47
2022-11-23T16:04:33.960Z,5.10
2022-11-23T16:07:16.807Z,6.63
2022-11-23T16:09:51.570Z,6.80
2022-11-23T16:12:29.353Z,8.10
2022-11-23T16:14:59.056Z,9.67
2022-11-23T16:17:27.936Z,6.40
2022-11-23T16:19:57.666Z,5.30
2022-11-23T16:22:32.500Z,4.53
2022-11-23T16:25:06.700Z,4.70
2022-11-23T16:27:35.273Z,2.60
2022-11-23T16:30:04.636Z,2.60
2022-11-23T16:32:33.364Z,2.23
2022-11-23T16:35:16.774Z,1.90
2022-11-23T16:37:45.048Z,2.13
2022-11-23T16:40:15.051Z,1.63
2022-11-23T16:42:43.180Z,2.90
2022-11-23T16:45:11.728Z,2.30
2022-11-23T16:47:53.614Z,2.53
2022-11-23T16:50:21.680Z,2.00
2022-11-23T16:52:49.757Z,2.40
2022-11-23T16:55:19.122Z,2.00
2022-11-23T16:57:47.913Z,2.33
2022-11-23T17:00:18.448Z,2.37
2022-11-23T17:02:46.843Z,8.83
2022-11-23T17:05:16.574Z,36.47
2022-11-23T17:07:44.871Z,33.93
2022-11-23T17:10:13.683Z,45.87
2022-11-23T17:12:50.075Z,22.40
2022-11-23T17:15:20.288Z,8.20
2022-11-23T17:17:48.167Z,7.63
2022-11-23T17:20:17.389Z,11.80
2022-11-23T17:22:45.735Z,18.37
2022-11-23T17:25:15.310Z,17.83
2022-11-23T17:27:47.108Z,12.10
2022-11-23T17:30:35.681Z,8.40
2022-11-23T17:33:03.578Z,8.67
2022-11-23T17:35:36.834Z,7.27
2022-11-23T17:38:06.373Z,5.07
2022-11-23T17:40:34.470Z,14.60
2022-11-23T17:43:03.817Z,10.80
2022-11-23T17:45:31.735Z,5.80
2022-11-23T17:48:03.294Z,7.10
2022-11-23T17:50:31.804Z,18.37
2022-11-23T17:53:00.422Z,8.10
2022-11-23T17:55:28.456Z,5.20
2022-11-23T17:57:56.400Z,6.00
2022-11-23T18:00:25.741Z,11.30
2022-11-23T18:02:53.619Z,4.97
2022-11-23T18:05:22.284Z,3.40
2022-11-23T18:07:50.580Z,3.03
2022-11-23T18:10:19.070Z,2.67
2022-11-23T18:12:47.492Z,3.00
2022-11-23T18:15:16.182Z,3.13
2022-11-23T18:17:45.619Z,3.00
2022-11-23T18:20:13.642Z,2.53
2022-11-23T18:22:41.552Z,3.83
2022-11-23T18:25:10.279Z,2.60
2022-11-23T18:27:38.204Z,3.40
2022-11-23T18:30:07.509Z,2.40
2022-11-23T18:32:35.418Z,1.93
2022-11-23T18:35:05.600Z,2.53
2022-11-23T18:37:33.525Z,2.70
2022-11-23T18:40:04.887Z,2.43
2022-11-23T18:42:32.812Z,2.27
2022-11-23T18:45:01.122Z,2.87
2022-11-23T18:47:31.871Z,2.37
2022-11-23T18:50:06.027Z,2.00
2022-11-23T18:52:36.081Z,2.00
2022-11-23T18:55:03.944Z,1.70
2022-11-23T18:57:31.897Z,1.90
2022-11-23T18:59:59.789Z,2.30
2022-11-23T19:02:27.888Z,1.70
2022-11-23T19:04:55.832Z,1.77
2022-11-23T19:07:27.046Z,2.20
2022-11-23T19:09:56.803Z,2.27
2022-11-23T19:12:24.737Z,2.40
2022-11-23T19:14:52.602Z,2.70
2022-11-23T19:17:20.521Z,3.43
2022-11-23T19:19:48.485Z,2.03
2022-11-23T19:22:16.359Z,2.33
2022-11-23T19:24:44.264Z,2.60
2022-11-23T19:27:13.586Z,2.10
2022-11-23T19:29:41.568Z,2.10
2022-11-23T19:32:09.569Z,2.10
2022-11-23T19:34:37.478Z,2.10
2022-11-23T19:37:05.359Z,2.20
2022-11-23T19:39:33.509Z,2.00
2022-11-23T19:42:01.631Z,3.03
2022-11-23T19:44:30.945Z,3.30
2022-11-23T19:46:58.877Z,2.47
2022-11-23T19:49:26.815Z,2.00
2022-11-23T19:51:56.193Z,2.20
2022-11-23T19:54:24.207Z,1.53
2022-11-23T19:56:52.197Z,2.17
2022-11-23T19:59:20.400Z,2.57
2022-11-23T20:01:49.987Z,2.50
2022-11-23T20:04:18.355Z,2.30
2022-11-23T20:06:46.663Z,2.67
2022-11-23T20:09:19.343Z,2.40
2022-11-23T20:11:50.855Z,2.63
2022-11-23T20:14:19.866Z,2.50
2022-11-23T20:16:49.377Z,3.80
2022-11-23T20:19:17.447Z,2.67
2022-11-23T20:21:45.477Z,1.90
2022-11-23T20:24:15.963Z,1.70
2022-11-23T20:26:44.266Z,3.20
2022-11-23T20:29:13.751Z,1.80
2022-11-23T20:31:44.981Z,2.10
2022-11-23T20:34:19.998Z,1.90
2022-11-23T20:36:49.409Z,2.00
2022-11-23T20:39:17.534Z,1.80
2022-11-23T20:41:45.986Z,2.00
2022-11-23T20:44:15.203Z,2.20
2022-11-23T20:49:33.882Z,1.80
2022-11-23T20:52:02.245Z,1.87
2022-11-23T20:54:30.459Z,1.60
2022-11-23T20:57:09.973Z,1.73
2022-11-23T20:59:39.333Z,1.40
2022-11-23T21:02:09.571Z,1.47
2022-11-23T21:04:39.610Z,1.77
2022-11-23T21:07:08.049Z,1.70
2022-11-23T21:09:36.624Z,1.67
2022-11-23T21:12:22.372Z,1.50
2022-11-23T21:14:50.290Z,1.77
2022-11-23T21:17:18.252Z,1.43
2022-11-23T21:19:47.592Z,1.00
2022-11-23T21:22:16.502Z,1.30
2022-11-23T21:24:44.439Z,1.27
2022-11-23T21:27:14.040Z,1.30
2022-11-23T21:29:44.026Z,1.33
2022-11-23T21:32:14.596Z,1.30
2022-11-23T21:34:42.578Z,1.47
2022-11-23T21:37:13.094Z,1.30
2022-11-23T21:39:41.241Z,1.30
2022-11-23T21:42:09.548Z,1.30
2022-11-23T21:44:37.460Z,1.60
2022-11-23T21:47:05.497Z,1.63
2022-11-23T21:49:33.414Z,1.47
2022-11-23T21:52:01.388Z,1.50
2022-11-23T21:54:30.923Z,1.50
2022-11-23T21:56:58.915Z,1.73
2022-11-23T21:59:26.889Z,1.40
2022-11-23T22:01:58.569Z,1.70
2022-11-23T22:04:27.028Z,1.50
2022-11-23T22:06:55.011Z,1.30
2022-11-23T22:09:23.093Z,1.50
2022-11-23T22:11:52.446Z,1.50
2022-11-23T22:14:21.938Z,1.57
2022-11-23T22:16:50.847Z,1.40
2022-11-23T22:19:19.157Z,1.40
2022-11-23T22:21:47.519Z,1.67
2022-11-23T22:24:17.146Z,1.47
2022-11-23T22:26:46.453Z,1.60
2022-11-23T22:29:16.404Z,1.63
2022-11-23T22:31:44.795Z,1.57
2022-11-23T22:34:14.678Z,1.60
2022-11-23T22:36:42.991Z,1.53
2022-11-23T22:39:11.555Z,1.90
2022-11-23T22:41:39.893Z,1.50
2022-11-23T22:44:10.204Z,1.87
2022-11-23T22:46:40.727Z,1.73
2022-11-23T22:49:08.976Z,1.90
2022-11-23T22:51:37.538Z,1.93
2022-11-23T22:54:06.056Z,1.60
2022-11-23T22:56:34.265Z,1.70
2022-11-23T22:59:02.312Z,1.80
2022-11-23T23:01:31.656Z,1.80
2022-11-23T23:04:03.310Z,1.50
2022-11-23T23:06:34.445Z,1.83
2022-11-23T23:09:03.414Z,1.80
2022-11-23T23:11:33.316Z,1.77
2022-11-23T23:14:01.353Z,1.73
2022-11-23T23:16:30.060Z,2.00
2022-11-23T23:19:00.401Z,1.77
2022-11-23T23:21:29.712Z,2.00
2022-11-23T23:24:01.021Z,1.93
2022-11-23T23:26:29.470Z,2.47
2022-11-23T23:28:58.898Z,1.67
2022-11-23T23:31:28.093Z,2.00
2022-11-23T23:33:56.872Z,1.80
2022-11-23T23:36:26.489Z,1.73
2022-11-23T23:38:54.631Z,1.67
2022-11-23T23:41:22.671Z,1.53
2022-11-23T23:43:50.672Z,1.83
2022-11-23T23:46:19.006Z,1.50
2022-11-23T23:48:47.631Z,1.33
2022-11-23T23:51:17.182Z,1.40
2022-11-23T23:53:47.153Z,1.40
2022-11-23T23:56:16.907Z,1.70
2022-11-23T23:58:45.351Z,1.77
